This is the latest recevied weather packets stored in our database for station/object BV5AB-3. If no packets are shown the sender has not sent any weather packets the latest 1 day(s).
| Time | Temp. | Humidity | Pressure | Rain* | Wind** | Luminosity | Snow |
|---|---|---|---|---|---|---|---|
| 1836274739 | 35.56° C | 43% | 977.5 hPa | 0 mm | 0 m/s | - | - |
| 1836274288 | 35.56° C | 43% | 977.4 hPa | 0 mm | 0 m/s | - | - |
| 1836274140 | 35.56° C | 42% | 977.5 hPa | 0 mm | 0 m/s | - | - |
| 1777973399 | 28.89° C | 90% | 983.2 hPa | 0 mm | 0 m/s | - | - |
| 1777972799 | 28.89° C | 90% | 983.1 hPa | 0 mm | 0 m/s | - | - |
| 1777972199 | 28.89° C | 91% | 983 hPa | 0 mm | 0 m/s | - | - |
| 1777971599 | 28.89° C | 91% | 983 hPa | 0 mm | 0 m/s | - | - |
| 1777970999 | 28.89° C | 91% | 982.9 hPa | 0 mm | 0 m/s | - | - |
| 1777970400 | 28.89° C | 91% | 982.6 hPa | 0 mm | 0 m/s | - | - |
| 1777969800 | 28.89° C | 89% | 983 hPa | 0 mm | 0 m/s | - | - |
| 1777969200 | 28.89° C | 90% | 983.2 hPa | 0 mm | 0 m/s | - | - |
| 1777968600 | 28.89° C | 89% | 983 hPa | 0 mm | 0 m/s | - | - |
| 1777968000 | 28.89° C | 88% | 982.9 hPa | 0 mm | 0 m/s | - | - |
| 1777967400 | 28.89° C | 88% | 983 hPa | 0 mm | 0 m/s | - | - |
| 1777966800 | 28.89° C | 88% | 983.2 hPa | 0 mm | 0 m/s | - | - |
| 1777966199 | 28.89° C | 87% | 983.3 hPa | 0 mm | 0 m/s | - | - |
| 1777965599 | 28.89° C | 87% | 983.2 hPa | 0 mm | 0 m/s | - | - |
| 1777964999 | 28.89° C | 87% | 983.2 hPa | 0 mm | 0 m/s | - | - |
| 1777964399 | 28.89° C | 87% | 983.3 hPa | 0 mm | 0 m/s | - | - |
| 1777963799 | 28.89° C | 88% | 983.2 hPa | 0 mm | 0 m/s | - | - |
| 1777963199 | 28.89° C | 87% | 983.2 hPa | 0 mm | 0 m/s | - | - |
| 1777962599 | 28.89° C | 87% | 983.3 hPa | 0 mm | 0 m/s | - | - |
| 1777961999 | 28.89° C | 86% | 983.4 hPa | 0 mm | 0 m/s | - | - |
| 1777961399 | 28.89° C | 88% | 983.2 hPa | 0 mm | 0 m/s | - | - |
| 1777960799 | 28.89° C | 87% | 983.5 hPa | 0 mm | 0 m/s | - | - |
* Rain latest hour (hover to see other rain measurements)
** Current wind speed in m/s (hover to see current wind gust speed)